createdAt,value
2022-08-19T00:01:38.111Z,5.13
2022-08-19T00:04:06.532Z,7.13
2022-08-19T00:06:33.069Z,4.37
2022-08-19T00:09:01.222Z,4.73
2022-08-19T00:11:28.558Z,4.30
2022-08-19T00:13:56.348Z,4.80
2022-08-19T00:16:26.488Z,5.20
2022-08-19T00:18:54.912Z,4.67
2022-08-19T00:21:21.680Z,4.80
2022-08-19T00:23:48.498Z,5.20
2022-08-19T00:26:15.054Z,4.83
2022-08-19T00:28:42.148Z,4.33
2022-08-19T00:31:08.896Z,5.77
2022-08-19T00:33:35.644Z,4.90
2022-08-19T00:36:05.502Z,4.83
2022-08-19T00:38:35.282Z,5.03
2022-08-19T00:41:05.947Z,4.77
2022-08-19T00:43:32.554Z,4.57
2022-08-19T00:45:59.647Z,4.90
2022-08-19T00:48:26.223Z,4.60
2022-08-19T00:50:54.167Z,4.70
2022-08-19T00:53:22.826Z,4.13
2022-08-19T00:55:51.432Z,4.90
2022-08-19T00:58:20.280Z,6.00
2022-08-19T01:00:47.259Z,5.00
2022-08-19T01:03:17.112Z,4.60
2022-08-19T01:05:45.975Z,4.97
2022-08-19T01:08:12.560Z,4.40
2022-08-19T01:10:43.127Z,4.70
2022-08-19T01:13:09.745Z,4.90
2022-08-19T01:15:57.893Z,4.87
2022-08-19T01:18:24.479Z,5.00
2022-08-19T01:20:51.125Z,4.80
2022-08-19T01:23:19.331Z,4.63
2022-08-19T01:25:50.915Z,4.67
2022-08-19T01:28:33.696Z,4.80
2022-08-19T01:31:01.071Z,5.10
2022-08-19T01:33:34.651Z,4.77
2022-08-19T01:36:06.240Z,4.60
2022-08-19T01:38:37.279Z,5.13
2022-08-19T01:41:12.165Z,4.67
2022-08-19T01:43:38.804Z,4.80
2022-08-19T01:46:25.705Z,4.73
2022-08-19T01:48:52.268Z,4.43
2022-08-19T01:51:18.832Z,5.30
2022-08-19T01:53:48.445Z,5.00
2022-08-19T01:56:15.429Z,4.90
2022-08-19T01:58:48.644Z,4.80
2022-08-19T02:01:15.262Z,5.27
2022-08-19T02:03:42.360Z,5.03
2022-08-19T02:06:08.957Z,5.03
2022-08-19T02:08:37.424Z,5.20
2022-08-19T02:11:04.297Z,4.87
2022-08-19T02:13:31.740Z,4.90
2022-08-19T02:15:58.789Z,4.73
2022-08-19T02:18:28.067Z,4.77
2022-08-19T02:20:54.805Z,4.20
2022-08-19T02:23:21.356Z,5.03
2022-08-19T02:25:48.871Z,4.87
2022-08-19T02:28:18.813Z,4.93
2022-08-19T02:30:45.847Z,4.50
2022-08-19T02:33:12.413Z,4.97
2022-08-19T02:35:43.211Z,4.83
2022-08-19T02:38:27.690Z,4.77
2022-08-19T02:40:59.745Z,4.70
2022-08-19T02:43:26.916Z,5.03
2022-08-19T02:45:53.757Z,5.53
2022-08-19T02:48:21.570Z,4.80
2022-08-19T02:50:53.299Z,4.90
2022-08-19T02:53:20.293Z,5.20
2022-08-19T02:55:47.288Z,5.57
2022-08-19T02:58:14.588Z,4.97
2022-08-19T03:00:46.580Z,5.17
2022-08-19T03:03:13.239Z,4.80
2022-08-19T03:05:55.761Z,4.23
2022-08-19T03:08:23.657Z,4.43
2022-08-19T03:10:50.202Z,4.33
2022-08-19T03:13:18.132Z,4.67
2022-08-19T03:15:45.906Z,4.40
2022-08-19T03:18:12.480Z,4.63
2022-08-19T03:20:50.178Z,4.50
2022-08-19T03:23:17.361Z,4.70
2022-08-19T03:25:46.211Z,4.67
2022-08-19T03:28:13.350Z,4.30
2022-08-19T03:30:43.095Z,4.37
2022-08-19T03:33:10.839Z,5.07
2022-08-19T03:35:46.064Z,4.70
2022-08-19T03:38:12.608Z,4.40
2022-08-19T03:40:39.171Z,4.67
2022-08-19T03:43:06.973Z,5.00
2022-08-19T03:45:33.551Z,4.67
2022-08-19T03:48:00.153Z,4.63
2022-08-19T03:50:26.666Z,4.67
2022-08-19T03:52:53.672Z,4.60
2022-08-19T03:55:20.448Z,4.63
2022-08-19T03:57:48.637Z,4.17
2022-08-19T04:00:16.253Z,5.03
2022-08-19T04:02:58.600Z,5.03
2022-08-19T04:05:30.608Z,5.00
2022-08-19T04:08:00.094Z,4.67
2022-08-19T04:10:28.599Z,4.47
2022-08-19T04:12:55.273Z,5.07
2022-08-19T04:15:21.859Z,5.00
2022-08-19T04:17:48.608Z,4.70
2022-08-19T04:20:15.337Z,4.87
2022-08-19T04:22:42.134Z,4.77
2022-08-19T04:25:09.102Z,5.27
2022-08-19T04:27:35.691Z,5.10
2022-08-19T04:30:02.658Z,4.63
2022-08-19T04:32:29.326Z,4.40
2022-08-19T04:35:02.242Z,4.90
2022-08-19T04:37:44.362Z,5.10
2022-08-19T04:40:29.780Z,4.87
2022-08-19T04:42:57.472Z,5.30
2022-08-19T04:45:24.049Z,4.87
2022-08-19T04:47:58.155Z,4.33
2022-08-19T04:50:27.041Z,4.40
2022-08-19T04:52:54.257Z,4.57
2022-08-19T04:55:21.035Z,4.77
2022-08-19T04:57:47.588Z,4.60
2022-08-19T05:00:14.230Z,4.97
2022-08-19T05:02:40.973Z,4.83
2022-08-19T05:05:07.841Z,4.50
2022-08-19T05:07:34.891Z,4.87
2022-08-19T05:10:01.545Z,4.60
2022-08-19T05:12:29.834Z,4.63
2022-08-19T05:14:57.874Z,5.43
2022-08-19T05:17:28.003Z,9.33
2022-08-19T05:20:14.712Z,14.23
2022-08-19T05:22:42.199Z,16.73
2022-08-19T05:25:13.257Z,18.87
2022-08-19T05:27:40.603Z,21.03
2022-08-19T05:30:07.652Z,18.50
2022-08-19T05:32:34.187Z,20.80
2022-08-19T05:35:00.744Z,21.00
2022-08-19T05:37:28.583Z,21.33
2022-08-19T05:39:55.762Z,16.63
2022-08-19T05:42:23.748Z,15.33
2022-08-19T05:44:50.572Z,15.20
2022-08-19T05:47:17.165Z,17.57
2022-08-19T05:49:43.742Z,18.63
2022-08-19T05:52:12.968Z,17.87
2022-08-19T05:54:42.380Z,20.17
2022-08-19T05:57:09.556Z,18.70
2022-08-19T05:59:39.326Z,18.10
2022-08-19T06:02:06.314Z,18.53
2022-08-19T06:04:32.967Z,20.07
2022-08-19T06:06:59.556Z,19.97
2022-08-19T06:09:26.283Z,20.43
2022-08-19T06:11:56.110Z,20.37
2022-08-19T06:14:27.753Z,21.53
2022-08-19T06:16:54.759Z,19.77
2022-08-19T06:19:22.827Z,20.67
2022-08-19T06:21:49.799Z,19.33
2022-08-19T06:24:18.063Z,25.37
2022-08-19T06:29:23.810Z,23.23
2022-08-19T06:31:52.971Z,22.90
2022-08-19T06:34:19.935Z,21.43
2022-08-19T06:36:48.399Z,21.57
2022-08-19T06:39:19.816Z,21.97
2022-08-19T06:41:51.805Z,20.60
2022-08-19T06:44:21.795Z,20.17
2022-08-19T06:46:53.552Z,20.93
2022-08-19T06:49:21.632Z,20.50
2022-08-19T06:51:51.904Z,19.90
2022-08-19T06:54:19.666Z,20.17
2022-08-19T06:56:47.092Z,19.53
2022-08-19T06:59:18.723Z,19.27
2022-08-19T07:01:49.887Z,19.77
2022-08-19T07:04:17.848Z,19.50
2022-08-19T07:06:45.739Z,20.30
2022-08-19T07:09:21.746Z,20.80
2022-08-19T07:11:50.212Z,20.57
2022-08-19T07:14:19.594Z,19.17
2022-08-19T07:16:48.180Z,20.17
2022-08-19T07:19:16.108Z,20.33
2022-08-19T07:21:45.544Z,19.93
2022-08-19T07:24:13.199Z,20.80
2022-08-19T07:26:42.194Z,20.93
2022-08-19T07:29:08.929Z,20.87
2022-08-19T07:31:37.551Z,20.80
2022-08-19T07:34:07.860Z,20.80
2022-08-19T07:36:36.143Z,20.37
2022-08-19T07:39:06.131Z,19.57
2022-08-19T07:41:33.059Z,19.93
2022-08-19T07:44:04.578Z,20.60
2022-08-19T07:46:35.156Z,20.87
2022-08-19T07:49:01.870Z,21.23
2022-08-19T07:51:36.543Z,22.07
2022-08-19T07:54:03.500Z,21.93
2022-08-19T07:56:30.038Z,21.50
2022-08-19T08:01:28.801Z,21.67
2022-08-19T08:04:15.187Z,22.47
2022-08-19T08:07:00.365Z,21.67
2022-08-19T08:09:32.805Z,24.40
2022-08-19T08:12:33.130Z,24.93
2022-08-19T08:14:58.414Z,24.33
2022-08-19T08:17:40.975Z,26.10
2022-08-19T08:20:14.383Z,24.70
2022-08-19T08:23:03.232Z,24.17
2022-08-19T08:25:32.361Z,26.43
2022-08-19T08:28:01.311Z,27.03
2022-08-19T08:30:31.162Z,26.60
2022-08-19T08:32:59.774Z,27.60
2022-08-19T08:35:26.361Z,27.10
2022-08-19T08:37:54.586Z,28.47
2022-08-19T08:41:04.520Z,27.20
2022-08-19T08:43:35.911Z,27.47
2022-08-19T08:46:04.630Z,25.40
2022-08-19T08:48:40.085Z,27.33
2022-08-19T08:51:11.005Z,25.90
2022-08-19T08:53:41.393Z,25.67
2022-08-19T08:56:08.456Z,24.43
2022-08-19T08:58:59.123Z,24.17
2022-08-19T09:01:30.334Z,25.47
2022-08-19T09:03:57.347Z,22.77
2022-08-19T09:06:47.820Z,22.43
2022-08-19T09:09:33.042Z,23.60
2022-08-19T09:12:26.818Z,21.13
2022-08-19T09:15:04.417Z,21.30
2022-08-19T09:17:32.093Z,21.23
2022-08-19T09:20:09.050Z,22.07
2022-08-19T09:22:40.278Z,20.00
2022-08-19T09:25:08.261Z,21.00
2022-08-19T09:27:53.902Z,20.93
2022-08-19T09:30:26.232Z,20.27
2022-08-19T09:32:56.172Z,20.47
2022-08-19T09:35:26.066Z,20.20
2022-08-19T09:37:57.403Z,20.43
2022-08-19T09:40:27.034Z,20.17
2022-08-19T09:42:58.095Z,19.67
2022-08-19T09:45:24.918Z,18.57
2022-08-19T09:47:54.362Z,19.90
2022-08-19T09:50:21.859Z,18.27
2022-08-19T09:52:57.011Z,19.30
2022-08-19T09:55:31.876Z,19.03
2022-08-19T09:58:02.307Z,17.63
2022-08-19T10:00:29.101Z,17.87
2022-08-19T10:02:55.696Z,18.27
2022-08-19T10:05:42.438Z,17.43
2022-08-19T10:08:13.578Z,19.20
2022-08-19T10:10:47.185Z,18.60
2022-08-19T10:13:15.761Z,18.40
2022-08-19T10:15:47.285Z,16.40
2022-08-19T10:18:14.422Z,17.83
2022-08-19T10:20:42.748Z,17.53
2022-08-19T10:23:10.232Z,16.63
2022-08-19T10:25:36.954Z,18.37
2022-08-19T10:28:05.287Z,17.93
2022-08-19T10:30:37.264Z,18.80
2022-08-19T10:33:08.541Z,19.20
2022-08-19T10:35:56.360Z,19.00
2022-08-19T10:38:31.359Z,19.60
2022-08-19T10:40:58.999Z,20.57
2022-08-19T10:43:25.957Z,20.87
2022-08-19T10:46:00.217Z,20.20
2022-08-19T10:48:26.974Z,21.53
2022-08-19T10:51:22.826Z,21.03
2022-08-19T10:53:50.971Z,20.53
2022-08-19T10:56:36.877Z,20.43
2022-08-19T10:59:04.272Z,20.03
2022-08-19T11:01:31.886Z,20.87
2022-08-19T11:03:58.541Z,22.23
2022-08-19T11:06:26.177Z,21.63
2022-08-19T11:08:54.000Z,20.70
2022-08-19T11:11:21.031Z,20.87
2022-08-19T11:13:48.256Z,21.70
2022-08-19T11:16:17.216Z,21.87
2022-08-19T11:18:51.265Z,20.87
2022-08-19T11:21:24.709Z,19.73
2022-08-19T11:23:52.763Z,19.43
2022-08-19T11:26:19.673Z,20.27
2022-08-19T11:28:46.373Z,20.33
2022-08-19T11:31:14.055Z,19.57
2022-08-19T11:33:40.879Z,18.93
2022-08-19T11:36:08.369Z,19.27
2022-08-19T11:38:36.526Z,19.33
2022-08-19T11:41:05.167Z,18.53
2022-08-19T11:43:37.141Z,17.93
2022-08-19T11:46:08.146Z,17.93
2022-08-19T11:48:35.266Z,18.43
2022-08-19T11:51:06.308Z,17.57
2022-08-19T11:53:33.059Z,17.20
2022-08-19T11:55:59.574Z,17.70
2022-08-19T11:58:26.096Z,16.97
2022-08-19T12:00:52.874Z,17.33
2022-08-19T12:03:20.501Z,15.90
2022-08-19T12:05:47.264Z,15.60
2022-08-19T12:08:13.928Z,15.00
2022-08-19T12:10:41.877Z,16.70
2022-08-19T12:13:08.555Z,15.10
2022-08-19T12:15:38.834Z,14.27
2022-08-19T12:18:05.675Z,14.97
2022-08-19T12:20:32.255Z,15.03
2022-08-19T12:23:02.105Z,14.33
2022-08-19T12:25:28.628Z,14.70
2022-08-19T12:27:57.458Z,14.13
2022-08-19T12:30:24.390Z,13.53
2022-08-19T12:32:52.172Z,14.10
2022-08-19T12:35:20.921Z,13.03
2022-08-19T12:37:57.032Z,14.77
2022-08-19T12:40:24.075Z,14.10
2022-08-19T12:42:53.327Z,13.87
2022-08-19T12:45:20.127Z,16.23
2022-08-19T12:47:47.729Z,13.87
2022-08-19T12:50:16.056Z,13.33
2022-08-19T12:52:43.414Z,14.10
2022-08-19T12:55:10.540Z,13.33
2022-08-19T12:57:37.183Z,13.33
2022-08-19T13:00:14.337Z,13.07
2022-08-19T13:02:42.789Z,13.23
2022-08-19T13:05:10.147Z,14.80
2022-08-19T13:07:38.393Z,13.03
2022-08-19T13:10:06.441Z,13.00
2022-08-19T13:12:33.099Z,13.13
2022-08-19T13:14:59.661Z,11.97
2022-08-19T13:17:27.031Z,12.53
2022-08-19T13:19:53.613Z,11.63
2022-08-19T13:22:20.159Z,12.77
2022-08-19T13:24:47.571Z,11.20
2022-08-19T13:27:14.343Z,14.77
2022-08-19T13:30:00.730Z,14.10
2022-08-19T13:32:46.128Z,11.47
2022-08-19T13:35:16.640Z,11.10
2022-08-19T13:37:43.718Z,11.73
2022-08-19T13:40:13.807Z,11.13
2022-08-19T13:42:41.098Z,11.57
2022-08-19T13:45:07.901Z,11.60
2022-08-19T13:47:43.423Z,11.00
2022-08-19T13:50:14.131Z,10.23
2022-08-19T13:52:40.855Z,10.90
2022-08-19T13:55:07.802Z,10.83
2022-08-19T13:57:34.373Z,10.87
2022-08-19T14:00:00.989Z,10.57
2022-08-19T14:02:27.584Z,10.60
2022-08-19T14:04:54.224Z,11.47
2022-08-19T14:07:21.211Z,9.30
2022-08-19T14:09:47.759Z,10.27
2022-08-19T14:12:19.100Z,10.30
2022-08-19T14:14:55.456Z,10.27
2022-08-19T14:17:22.496Z,9.83
2022-08-19T14:19:49.067Z,9.43
2022-08-19T14:22:15.633Z,9.77
2022-08-19T14:24:49.179Z,10.00
2022-08-19T14:27:15.799Z,9.80
2022-08-19T14:29:42.335Z,9.40
2022-08-19T14:32:11.544Z,9.60
2022-08-19T14:34:46.777Z,9.23
2022-08-19T14:37:17.031Z,9.40
2022-08-19T14:39:43.715Z,9.43
2022-08-19T14:42:11.475Z,9.30
2022-08-19T14:44:38.285Z,9.87
2022-08-19T14:47:05.060Z,8.30
2022-08-19T14:49:34.829Z,9.47
2022-08-19T14:52:08.332Z,9.23
2022-08-19T14:54:34.892Z,8.83
2022-08-19T14:57:01.445Z,9.53
2022-08-19T14:59:28.036Z,8.90
2022-08-19T15:01:54.685Z,9.43
2022-08-19T15:04:21.300Z,8.50
2022-08-19T15:06:47.863Z,8.70
2022-08-19T15:09:14.380Z,8.40
2022-08-19T15:11:40.949Z,8.90
2022-08-19T15:14:07.839Z,8.73
2022-08-19T15:16:34.602Z,8.47
2022-08-19T15:19:01.214Z,8.57
2022-08-19T15:21:28.352Z,8.80
2022-08-19T15:23:56.400Z,8.07
2022-08-19T15:26:22.994Z,8.73
2022-08-19T15:28:49.752Z,8.30
2022-08-19T15:31:25.552Z,8.73
2022-08-19T15:33:58.274Z,8.30
2022-08-19T15:36:26.172Z,7.97
2022-08-19T15:38:53.254Z,7.07
2022-08-19T15:41:24.819Z,7.97
2022-08-19T15:43:56.105Z,8.40
2022-08-19T15:46:27.172Z,8.00
2022-08-19T15:48:57.277Z,7.50
2022-08-19T15:51:27.459Z,8.03
2022-08-19T15:53:55.150Z,7.60
2022-08-19T15:56:25.517Z,8.10
2022-08-19T15:59:12.122Z,7.30
2022-08-19T16:01:57.206Z,8.47
2022-08-19T16:04:42.044Z,7.53
2022-08-19T16:07:10.267Z,7.60
2022-08-19T16:09:36.873Z,7.57
2022-08-19T16:12:04.890Z,7.10
2022-08-19T16:14:33.965Z,8.27
2022-08-19T16:17:00.509Z,7.33
2022-08-19T16:19:27.370Z,7.50
2022-08-19T16:21:54.965Z,7.40
2022-08-19T16:24:23.236Z,8.47
2022-08-19T16:26:49.899Z,7.47
2022-08-19T16:29:22.066Z,7.53
2022-08-19T16:32:04.921Z,8.00
2022-08-19T16:34:31.668Z,7.73
2022-08-19T16:36:58.236Z,7.47
2022-08-19T16:39:24.777Z,7.67
2022-08-19T16:41:51.568Z,7.67
2022-08-19T16:44:19.451Z,7.17
2022-08-19T16:46:47.104Z,7.33
2022-08-19T16:49:52.934Z,7.20
2022-08-19T16:52:12.310Z,6.97
2022-08-19T16:54:41.637Z,6.40
2022-08-19T16:57:11.844Z,7.13
2022-08-19T16:59:39.497Z,7.23
2022-08-19T17:02:14.757Z,7.27
2022-08-19T17:04:41.665Z,7.33
2022-08-19T17:07:09.775Z,8.00
2022-08-19T17:09:36.703Z,6.97
2022-08-19T17:12:04.811Z,7.97
2022-08-19T17:14:31.384Z,6.53
2022-08-19T17:16:57.908Z,7.03
2022-08-19T17:19:24.436Z,7.37
2022-08-19T17:21:51.237Z,6.83
2022-08-19T17:24:17.803Z,7.00
2022-08-19T17:26:44.569Z,7.10
2022-08-19T17:29:11.177Z,6.60
2022-08-19T17:31:38.171Z,6.30
2022-08-19T17:34:04.694Z,7.07
2022-08-19T17:36:32.387Z,6.97
2022-08-19T17:39:00.567Z,6.80
2022-08-19T17:41:27.905Z,6.53
2022-08-19T17:43:54.660Z,6.07
2022-08-19T17:46:21.376Z,6.17
2022-08-19T17:48:52.241Z,6.63
2022-08-19T17:51:23.329Z,6.50
2022-08-19T17:53:51.197Z,6.53
2022-08-19T17:56:18.091Z,7.63
2022-08-19T17:58:45.036Z,6.00
2022-08-19T18:01:24.645Z,6.03
2022-08-19T18:03:52.805Z,7.77
2022-08-19T18:06:19.345Z,7.37
2022-08-19T18:08:46.676Z,7.73
2022-08-19T18:11:13.410Z,6.30
2022-08-19T18:13:40.724Z,6.33
2022-08-19T18:16:12.225Z,7.30
2022-08-19T18:18:39.976Z,6.33
2022-08-19T18:21:06.690Z,6.53
2022-08-19T18:23:44.429Z,6.33
2022-08-19T18:26:12.286Z,7.40
2022-08-19T18:28:39.859Z,6.13
2022-08-19T18:31:16.782Z,6.40
2022-08-19T18:33:44.589Z,6.67
2022-08-19T18:36:11.326Z,6.77
2022-08-19T18:38:56.116Z,5.93
2022-08-19T18:41:41.065Z,5.93
2022-08-19T18:44:26.005Z,10.73
2022-08-19T18:47:13.927Z,6.67
2022-08-19T18:49:40.567Z,6.40
2022-08-19T18:52:07.206Z,5.97
2022-08-19T18:54:34.344Z,5.73
2022-08-19T18:57:01.080Z,6.20
2022-08-19T18:59:30.199Z,5.63
2022-08-19T19:01:57.709Z,5.73
2022-08-19T19:04:27.185Z,6.17
2022-08-19T19:06:53.707Z,5.80
2022-08-19T19:09:21.713Z,5.70
2022-08-19T19:11:59.391Z,7.23
2022-08-19T19:14:48.645Z,6.53
2022-08-19T19:17:16.218Z,5.50
2022-08-19T19:19:43.902Z,5.33
2022-08-19T19:22:13.751Z,5.53
2022-08-19T19:24:40.737Z,5.37
2022-08-19T19:27:08.397Z,5.97
2022-08-19T19:29:38.224Z,5.37
2022-08-19T19:32:09.148Z,5.67
2022-08-19T19:34:37.939Z,5.20
2022-08-19T19:37:04.553Z,6.80
2022-08-19T19:39:45.865Z,5.13
2022-08-19T19:42:20.092Z,5.70
2022-08-19T19:44:48.761Z,5.17
2022-08-19T19:47:15.774Z,5.33
2022-08-19T19:50:03.977Z,4.53
2022-08-19T19:52:28.989Z,5.13
2022-08-19T19:54:56.707Z,5.40
2022-08-19T19:57:26.830Z,4.70
2022-08-19T19:59:54.191Z,5.17
2022-08-19T20:02:22.026Z,5.03
2022-08-19T20:04:48.950Z,6.30
2022-08-19T20:07:15.552Z,4.73
2022-08-19T20:09:58.931Z,5.07
2022-08-19T20:12:26.523Z,5.37
2022-08-19T20:14:53.078Z,5.27
2022-08-19T20:17:20.694Z,4.90
2022-08-19T20:19:47.844Z,4.97
2022-08-19T20:22:14.544Z,4.50
2022-08-19T20:24:42.611Z,4.90
2022-08-19T20:27:10.227Z,4.47
2022-08-19T20:29:44.238Z,4.80
2022-08-19T20:32:12.390Z,4.80
2022-08-19T20:34:39.869Z,6.40
2022-08-19T20:37:09.174Z,4.90
2022-08-19T20:39:36.274Z,4.60
2022-08-19T20:42:03.164Z,5.10
2022-08-19T20:44:29.696Z,4.50
2022-08-19T20:47:00.455Z,4.40
2022-08-19T20:49:29.638Z,7.80
2022-08-19T20:51:56.491Z,4.23
2022-08-19T20:54:24.151Z,4.47
2022-08-19T20:56:51.093Z,5.33
2022-08-19T20:59:17.723Z,4.37
2022-08-19T21:01:44.248Z,5.20
2022-08-19T21:04:10.806Z,5.07
2022-08-19T21:06:38.568Z,4.63
2022-08-19T21:09:08.836Z,4.80
2022-08-19T21:11:36.103Z,4.70
2022-08-19T21:14:02.864Z,4.70
2022-08-19T21:16:29.416Z,4.30
2022-08-19T21:18:55.936Z,4.20
2022-08-19T21:21:22.504Z,4.70
2022-08-19T21:23:49.645Z,4.80
2022-08-19T21:26:16.315Z,4.20
2022-08-19T21:28:42.864Z,4.53
2022-08-19T21:31:10.574Z,4.57
2022-08-19T21:33:37.663Z,4.27
2022-08-19T21:36:04.512Z,4.67
2022-08-19T21:38:31.317Z,4.43
2022-08-19T21:40:57.903Z,3.97
2022-08-19T21:43:24.639Z,4.20
2022-08-19T21:45:51.188Z,3.83
2022-08-19T21:48:17.911Z,4.17
2022-08-19T21:50:46.002Z,4.27
2022-08-19T21:53:17.676Z,3.90
2022-08-19T21:55:44.835Z,3.80
2022-08-19T21:58:11.786Z,4.23
2022-08-19T22:00:38.627Z,4.20
2022-08-19T22:03:05.352Z,4.07
2022-08-19T22:05:33.310Z,4.00
2022-08-19T22:08:00.264Z,3.57
2022-08-19T22:10:27.917Z,3.80
2022-08-19T22:12:56.173Z,3.80
2022-08-19T22:15:23.287Z,4.10
2022-08-19T22:17:50.125Z,4.03
2022-08-19T22:20:19.056Z,3.90
2022-08-19T22:22:50.672Z,3.57
2022-08-19T22:25:32.257Z,3.87
2022-08-19T22:28:01.851Z,3.97
2022-08-19T22:30:33.322Z,3.90
2022-08-19T22:33:02.211Z,3.33
2022-08-19T22:35:31.489Z,3.80
2022-08-19T22:38:02.209Z,5.20
2022-08-19T22:40:29.700Z,3.90
2022-08-19T22:43:00.617Z,3.93
2022-08-19T22:45:27.434Z,4.00
2022-08-19T22:47:54.240Z,3.37
2022-08-19T22:50:20.928Z,4.17
2022-08-19T22:52:51.994Z,3.27
2022-08-19T22:55:18.836Z,3.93
2022-08-19T22:57:45.366Z,3.53
2022-08-19T23:00:13.452Z,3.27
2022-08-19T23:02:52.380Z,3.60
2022-08-19T23:05:21.928Z,3.50
2022-08-19T23:07:52.825Z,3.50
2022-08-19T23:10:26.891Z,3.23
2022-08-19T23:12:54.517Z,3.87
2022-08-19T23:15:24.259Z,3.73
2022-08-19T23:17:54.447Z,3.40
2022-08-19T23:20:21.790Z,3.50
2022-08-19T23:22:49.643Z,4.27
2022-08-19T23:25:19.071Z,3.00
2022-08-19T23:28:04.599Z,2.73
2022-08-19T23:30:31.908Z,3.67
2022-08-19T23:33:00.984Z,3.27
2022-08-19T23:35:31.760Z,3.60
2022-08-19T23:37:58.587Z,3.73
2022-08-19T23:40:25.128Z,3.80
2022-08-19T23:42:51.737Z,3.33
2022-08-19T23:45:23.586Z,3.33
2022-08-19T23:47:51.340Z,3.67
2022-08-19T23:50:20.450Z,3.53
2022-08-19T23:52:51.668Z,3.40
2022-08-19T23:55:19.449Z,3.30
2022-08-19T23:57:46.035Z,3.50
